Auriesville, New York
Current Conditions -  °F | °C
As of 4:35 AM on Friday 28 Nov 2014 (Local Time) from KNY0 Reporting Station
Overcast Overcast  
Wind Chill: 17°   Ceiling: 3800
Heat Index: 24°   Visibility: 10mi
Dew Point: 21°   Wind: 6mph
Humidity: 90%   Direction: 280°W
Pressure: 30.04"   Gusts: NA
Location:  42.93°N, 74.32°W
Report Text: KNY0 280935Z AUTO 28005KT 10SM SCT020 BKN038 OVC110 M05/M06 A3004 RMK AO2 T10461060
Loading
Personal Weather Stations






























Interactive Weather Map New forecast layout! Learn more

10-Day Weather Forecast

Advertisements
Track Severe Weather on mobile